createdAt,value
2019-01-08T00:01:06.699Z,8.30
2019-01-08T00:03:35.969Z,8.30
2019-01-08T00:06:05.753Z,8.30
2019-01-08T00:08:35.001Z,8.30
2019-01-08T00:11:04.260Z,8.30
2019-01-08T00:13:33.419Z,8.30
2019-01-08T00:16:02.605Z,8.30
2019-01-08T00:18:31.851Z,8.30
2019-01-08T00:21:02.362Z,8.30
2019-01-08T00:23:31.693Z,8.30
2019-01-08T00:26:00.860Z,8.30
2019-01-08T00:28:30.133Z,8.40
2019-01-08T00:30:59.371Z,8.40
2019-01-08T00:33:28.990Z,8.50
2019-01-08T00:35:58.178Z,8.50
2019-01-08T00:38:27.418Z,8.50
2019-01-08T00:40:56.592Z,8.50
2019-01-08T00:43:25.739Z,8.40
2019-01-08T00:45:54.882Z,8.40
2019-01-08T00:48:24.065Z,8.30
2019-01-08T00:50:53.967Z,8.30
2019-01-08T00:53:23.182Z,8.30
2019-01-08T00:55:52.619Z,8.30
2019-01-08T00:58:21.832Z,8.20
2019-01-08T01:00:51.054Z,8.10
2019-01-08T01:03:20.361Z,8.20
2019-01-08T01:05:49.628Z,8.20
2019-01-08T01:08:18.873Z,8.20
2019-01-08T01:10:48.065Z,8.20
2019-01-08T01:13:17.218Z,8.10
2019-01-08T01:15:46.362Z,8.10
2019-01-08T01:18:15.541Z,8.10
2019-01-08T01:20:44.705Z,8.10
2019-01-08T01:23:14.112Z,8.10
2019-01-08T01:25:43.292Z,8.10
2019-01-08T01:28:12.844Z,8.20
2019-01-08T01:30:41.992Z,8.20
2019-01-08T01:33:11.167Z,8.20
2019-01-08T01:35:40.690Z,8.20
2019-01-08T01:38:10.237Z,8.20
2019-01-08T01:40:39.500Z,8.20
2019-01-08T01:43:08.729Z,8.20
2019-01-08T01:45:37.888Z,8.10
2019-01-08T01:48:07.401Z,8.10
2019-01-08T01:50:36.592Z,8.10
2019-01-08T01:53:05.756Z,8.20
2019-01-08T01:55:35.381Z,8.20
2019-01-08T01:58:04.695Z,8.10
2019-01-08T02:00:34.094Z,8.10
2019-01-08T02:03:03.629Z,8.10
2019-01-08T02:05:32.789Z,8.10
2019-01-08T02:08:02.056Z,8.10
2019-01-08T02:10:31.228Z,8.10
2019-01-08T02:13:00.409Z,8.10
2019-01-08T02:15:29.656Z,8.20
2019-01-08T02:17:58.840Z,8.10
2019-01-08T02:20:27.993Z,8.20
2019-01-08T02:22:57.174Z,8.20
2019-01-08T02:25:26.609Z,8.20
2019-01-08T02:27:55.862Z,8.20
2019-01-08T02:30:25.114Z,8.20
2019-01-08T02:32:54.648Z,8.20
2019-01-08T02:35:23.861Z,8.10
2019-01-08T02:37:53.274Z,8.10
2019-01-08T02:40:22.537Z,8.10
2019-01-08T02:42:52.067Z,8.10
2019-01-08T02:45:21.362Z,8.10
2019-01-08T02:47:50.562Z,8.10
2019-01-08T02:50:19.716Z,8.10
2019-01-08T02:52:48.960Z,8.10
2019-01-08T02:55:18.221Z,8.20
2019-01-08T02:57:47.381Z,8.20
2019-01-08T03:00:16.564Z,8.20
2019-01-08T03:02:46.016Z,8.10
2019-01-08T03:05:15.274Z,8.10
2019-01-08T03:07:44.521Z,8.10
2019-01-08T03:10:13.992Z,8.20
2019-01-08T03:12:43.225Z,8.20
2019-01-08T03:15:12.619Z,8.20
2019-01-08T03:17:42.265Z,8.20
2019-01-08T03:20:11.485Z,8.20
2019-01-08T03:22:40.724Z,8.20
2019-01-08T03:25:09.983Z,8.20
2019-01-08T03:27:39.136Z,8.20
2019-01-08T03:30:08.302Z,8.20
2019-01-08T03:32:37.561Z,8.10
2019-01-08T03:35:06.798Z,8.20
2019-01-08T03:37:36.035Z,8.20
2019-01-08T03:40:06.266Z,8.20
2019-01-08T03:42:35.497Z,8.20
2019-01-08T03:45:04.765Z,8.20
2019-01-08T03:47:34.021Z,8.20
2019-01-08T03:50:03.846Z,8.20
2019-01-08T03:52:33.026Z,8.20
2019-01-08T03:55:03.314Z,8.20
2019-01-08T03:57:32.551Z,8.20
2019-01-08T04:00:01.808Z,8.20
2019-01-08T04:02:31.115Z,8.20
2019-01-08T04:05:00.994Z,8.20
2019-01-08T04:07:30.651Z,8.20
2019-01-08T04:10:00.822Z,8.30
2019-01-08T04:12:30.045Z,8.30
2019-01-08T04:14:59.222Z,8.30
2019-01-08T04:17:28.633Z,8.20
2019-01-08T04:19:57.861Z,8.20
2019-01-08T04:22:27.411Z,8.30
2019-01-08T04:24:56.729Z,8.20
2019-01-08T04:27:26.063Z,8.20
2019-01-08T04:29:55.322Z,8.20
2019-01-08T04:32:24.645Z,8.20
2019-01-08T04:34:53.873Z,8.20
2019-01-08T04:37:23.360Z,8.10
2019-01-08T04:39:52.552Z,8.10
2019-01-08T04:42:21.874Z,8.10
2019-01-08T04:44:51.116Z,8.10
2019-01-08T04:47:20.369Z,8.10
2019-01-08T04:49:49.521Z,8.10
2019-01-08T04:52:18.705Z,8.10
2019-01-08T04:54:47.961Z,8.10
2019-01-08T04:57:17.190Z,8.10
2019-01-08T04:59:46.461Z,8.10
2019-01-08T05:02:15.782Z,8.10
2019-01-08T05:04:45.591Z,8.10
2019-01-08T05:07:14.832Z,8.00
2019-01-08T05:09:44.021Z,8.00
2019-01-08T05:12:13.185Z,8.00
2019-01-08T05:14:42.347Z,8.00
2019-01-08T05:17:12.020Z,8.00
2019-01-08T05:19:41.187Z,8.00
2019-01-08T05:22:10.514Z,7.90
2019-01-08T05:24:39.709Z,7.90
2019-01-08T05:27:08.934Z,7.90
2019-01-08T05:29:38.394Z,7.80
2019-01-08T05:32:07.653Z,7.80
2019-01-08T05:34:36.966Z,7.80
2019-01-08T05:37:06.225Z,7.70
2019-01-08T05:39:35.405Z,7.70
2019-01-08T05:42:04.634Z,7.70
2019-01-08T05:44:33.889Z,7.70
2019-01-08T05:47:03.144Z,7.60
2019-01-08T05:49:32.325Z,7.60
2019-01-08T05:52:01.698Z,7.60
2019-01-08T05:54:31.873Z,7.50
2019-01-08T05:57:01.104Z,7.50
2019-01-08T05:59:30.615Z,7.50
2019-01-08T06:02:00.941Z,7.40
2019-01-08T06:04:30.237Z,7.40
2019-01-08T06:06:59.533Z,7.40
2019-01-08T06:09:29.530Z,7.40
2019-01-08T06:11:59.056Z,7.40
2019-01-08T06:14:28.235Z,7.30
2019-01-08T06:16:57.408Z,7.30
2019-01-08T06:19:26.645Z,7.20
2019-01-08T06:21:56.383Z,7.20
2019-01-08T06:24:25.765Z,7.20
2019-01-08T06:26:55.255Z,7.20
2019-01-08T06:29:24.461Z,7.10
2019-01-08T06:31:54.381Z,7.10
2019-01-08T06:34:23.578Z,7.10
2019-01-08T06:36:52.742Z,7.10
2019-01-08T06:39:21.919Z,7.10
2019-01-08T06:41:51.347Z,7.10
2019-01-08T06:44:20.703Z,7.10
2019-01-08T06:46:49.889Z,7.10
2019-01-08T06:49:19.103Z,7.10
2019-01-08T06:51:48.279Z,7.10
2019-01-08T06:54:17.457Z,7.10
2019-01-08T06:56:46.604Z,7.10
2019-01-08T06:59:16.739Z,7.10
2019-01-08T07:01:45.973Z,7.10
2019-01-08T07:04:15.414Z,7.10
2019-01-08T07:06:44.585Z,7.10
2019-01-08T07:09:13.787Z,7.10
2019-01-08T07:11:42.932Z,7.10
2019-01-08T07:14:12.100Z,7.10
2019-01-08T07:16:41.280Z,7.00
2019-01-08T07:19:10.451Z,7.00
2019-01-08T07:21:39.691Z,6.90
2019-01-08T07:24:08.941Z,6.90
2019-01-08T07:26:38.083Z,6.90
2019-01-08T07:29:07.258Z,6.80
2019-01-08T07:31:36.506Z,6.80
2019-01-08T07:34:05.724Z,6.80
2019-01-08T07:36:34.910Z,6.70
2019-01-08T07:39:05.186Z,6.70
2019-01-08T07:41:34.355Z,6.70
2019-01-08T07:44:03.823Z,6.70
2019-01-08T07:46:33.170Z,6.60
2019-01-08T07:49:02.417Z,6.60
2019-01-08T07:51:31.633Z,6.60
2019-01-08T07:54:00.883Z,6.60
2019-01-08T07:56:30.044Z,6.60
2019-01-08T07:58:59.602Z,6.60
2019-01-08T08:01:28.788Z,6.60
2019-01-08T08:03:58.914Z,6.60
2019-01-08T08:06:28.146Z,6.50
2019-01-08T08:08:57.506Z,6.50
2019-01-08T08:11:26.732Z,6.50
2019-01-08T08:13:55.895Z,6.40
2019-01-08T08:16:25.066Z,6.50
2019-01-08T08:18:54.215Z,6.50
2019-01-08T08:21:23.819Z,6.60
2019-01-08T08:23:53.001Z,6.50
2019-01-08T08:26:22.163Z,6.50
2019-01-08T08:28:51.326Z,6.50
2019-01-08T08:31:20.755Z,6.50
2019-01-08T08:33:50.239Z,6.50
2019-01-08T08:36:19.399Z,6.50
2019-01-08T08:38:48.606Z,6.60
2019-01-08T08:41:17.851Z,6.60
2019-01-08T08:43:47.019Z,6.70
2019-01-08T08:46:16.208Z,6.60
2019-01-08T08:48:45.362Z,6.70
2019-01-08T08:51:14.868Z,6.60
2019-01-08T08:53:52.051Z,6.60
2019-01-08T08:56:15.023Z,6.60
2019-01-08T08:58:44.207Z,6.60
2019-01-08T09:01:13.463Z,6.60
2019-01-08T09:03:42.610Z,6.60
2019-01-08T09:06:11.755Z,6.60
2019-01-08T09:08:40.930Z,6.60
2019-01-08T09:11:10.072Z,6.60
2019-01-08T09:13:39.219Z,6.80
2019-01-08T09:16:08.471Z,7.20
2019-01-08T09:18:37.647Z,7.70
2019-01-08T09:21:07.079Z,8.10
2019-01-08T09:23:36.246Z,8.00
2019-01-08T09:26:06.384Z,8.00
2019-01-08T09:28:36.001Z,7.80
2019-01-08T09:31:05.174Z,7.70
2019-01-08T09:33:35.394Z,7.50
2019-01-08T09:36:04.602Z,7.40
2019-01-08T09:38:33.915Z,7.30
2019-01-08T09:41:03.278Z,7.20
2019-01-08T09:43:32.475Z,7.20
2019-01-08T09:46:02.213Z,7.10
2019-01-08T09:48:31.358Z,7.20
2019-01-08T09:51:00.576Z,7.10
2019-01-08T09:53:29.739Z,7.10
2019-01-08T09:55:59.454Z,7.20
2019-01-08T09:58:28.600Z,7.20
2019-01-08T10:00:58.619Z,7.30
2019-01-08T10:03:27.777Z,7.40
2019-01-08T10:05:56.939Z,7.40
2019-01-08T10:08:26.119Z,7.40
2019-01-08T10:10:55.734Z,7.50
2019-01-08T10:13:24.903Z,7.50
2019-01-08T10:15:54.079Z,7.50
2019-01-08T10:18:23.293Z,7.60
2019-01-08T10:20:52.530Z,7.70
2019-01-08T10:23:21.711Z,7.70
2019-01-08T10:25:50.931Z,7.80
2019-01-08T10:28:20.094Z,7.80
2019-01-08T10:30:49.278Z,7.90
2019-01-08T10:33:18.476Z,8.00
2019-01-08T10:35:48.292Z,8.10
2019-01-08T10:38:17.500Z,8.30
2019-01-08T10:40:46.697Z,9.10
2019-01-08T10:43:15.857Z,10.10
2019-01-08T10:45:45.189Z,11.50
2019-01-08T10:48:14.533Z,12.60
2019-01-08T10:50:43.743Z,13.30
2019-01-08T10:53:12.987Z,13.70
2019-01-08T10:55:42.203Z,14.50
2019-01-08T10:58:11.377Z,14.70
2019-01-08T11:00:40.559Z,14.70
2019-01-08T11:03:09.803Z,14.90
2019-01-08T11:05:39.050Z,15.20
2019-01-08T11:08:08.723Z,14.40
2019-01-08T11:10:37.882Z,14.70
2019-01-08T11:13:07.127Z,14.90
2019-01-08T11:15:36.313Z,15.00
2019-01-08T11:18:05.513Z,14.80
2019-01-08T11:20:34.768Z,14.20
2019-01-08T11:23:04.010Z,13.80
2019-01-08T11:25:33.163Z,14.30
2019-01-08T11:28:02.443Z,14.90
2019-01-08T11:30:31.671Z,15.20
2019-01-08T11:33:00.967Z,15.90
2019-01-08T11:35:30.147Z,16.50
2019-01-08T11:37:59.619Z,17.00
2019-01-08T11:40:29.030Z,17.30
2019-01-08T11:42:59.247Z,18.20
2019-01-08T11:45:28.903Z,19.00
2019-01-08T11:48:03.762Z,19.80
2019-01-08T11:50:28.939Z,19.40
2019-01-08T11:52:58.118Z,19.60
2019-01-08T11:55:27.269Z,19.80
2019-01-08T11:57:56.830Z,19.90
2019-01-08T12:00:26.140Z,19.70
2019-01-08T12:02:55.365Z,20.80
2019-01-08T12:05:24.798Z,21.40
2019-01-08T12:07:53.980Z,21.20
2019-01-08T12:10:23.412Z,20.70
2019-01-08T12:12:52.653Z,20.60
2019-01-08T12:15:21.884Z,20.20
2019-01-08T12:17:52.157Z,19.70
2019-01-08T12:20:21.304Z,19.00
2019-01-08T12:22:50.875Z,18.00
2019-01-08T12:25:20.029Z,17.10
2019-01-08T12:27:49.250Z,15.70
2019-01-08T12:30:18.937Z,14.30
2019-01-08T12:32:48.091Z,14.20
2019-01-08T12:35:17.254Z,14.40
2019-01-08T12:37:46.508Z,14.70
2019-01-08T12:40:15.659Z,14.60
2019-01-08T12:42:45.358Z,14.60
2019-01-08T12:45:14.620Z,14.40
2019-01-08T12:47:43.863Z,13.90
2019-01-08T12:50:13.015Z,14.40
2019-01-08T12:52:42.200Z,15.80
2019-01-08T12:55:13.060Z,16.50
2019-01-08T12:57:42.409Z,16.50
2019-01-08T13:00:11.747Z,15.80
2019-01-08T13:02:42.059Z,15.90
2019-01-08T13:05:11.912Z,16.70
2019-01-08T13:07:41.054Z,17.50
2019-01-08T13:10:10.245Z,19.00
2019-01-08T13:12:40.128Z,19.80
2019-01-08T13:15:09.961Z,20.00
2019-01-08T13:17:39.127Z,20.10
2019-01-08T13:20:08.389Z,18.90
2019-01-08T13:22:37.616Z,17.90
2019-01-08T13:25:07.606Z,18.10
2019-01-08T13:27:36.785Z,18.70
2019-01-08T13:30:07.152Z,18.20
2019-01-08T13:32:36.658Z,18.50
2019-01-08T13:35:06.400Z,18.50
2019-01-08T13:37:35.548Z,18.10
2019-01-08T13:40:05.814Z,18.00
2019-01-08T13:42:35.270Z,18.00
2019-01-08T13:45:07.225Z,17.80
2019-01-08T13:47:36.402Z,16.50
2019-01-08T13:50:07.254Z,15.90
2019-01-08T13:52:37.175Z,15.10
2019-01-08T13:55:06.386Z,14.30
2019-01-08T13:57:35.532Z,13.40
2019-01-08T14:00:07.838Z,12.70
2019-01-08T14:02:38.631Z,12.10
2019-01-08T14:05:07.802Z,11.50
2019-01-08T14:07:37.357Z,11.20
2019-01-08T14:10:07.530Z,10.80
2019-01-08T14:12:36.982Z,10.50
2019-01-08T14:15:06.760Z,10.40
2019-01-08T14:17:36.852Z,10.50
2019-01-08T14:20:07.666Z,10.50
2019-01-08T14:22:37.473Z,10.50
2019-01-08T14:25:07.697Z,10.40
2019-01-08T14:27:37.047Z,10.20
2019-01-08T14:30:09.123Z,10.10
2019-01-08T14:32:40.766Z,10.00
2019-01-08T14:35:10.306Z,9.90
2019-01-08T14:37:39.653Z,9.80
2019-01-08T14:40:08.822Z,9.80
2019-01-08T14:42:37.998Z,9.80
2019-01-08T14:45:07.219Z,9.60
2019-01-08T14:47:36.443Z,9.60
2019-01-08T14:50:07.251Z,9.50
2019-01-08T14:52:36.416Z,9.40
2019-01-08T14:55:05.606Z,9.30
2019-01-08T14:57:34.758Z,9.20
2019-01-08T15:00:04.185Z,9.10
2019-01-08T15:02:35.063Z,9.10
2019-01-08T15:05:04.687Z,9.00
2019-01-08T15:07:34.231Z,8.90
2019-01-08T15:10:03.741Z,8.90
2019-01-08T15:12:33.044Z,8.90
2019-01-08T15:15:02.697Z,8.80
2019-01-08T15:17:32.865Z,8.80
2019-01-08T15:20:02.094Z,8.80
2019-01-08T15:22:31.695Z,8.80
2019-01-08T15:25:00.871Z,8.80
2019-01-08T15:27:30.107Z,8.70
2019-01-08T15:29:59.351Z,8.70
2019-01-08T15:32:28.706Z,8.60
2019-01-08T15:34:57.883Z,8.60
2019-01-08T15:37:27.051Z,8.50
2019-01-08T15:39:56.220Z,8.40
2019-01-08T15:42:25.366Z,8.40
2019-01-08T15:44:54.538Z,8.50
2019-01-08T15:47:23.941Z,8.40
2019-01-08T15:49:53.094Z,8.40
2019-01-08T15:52:22.383Z,8.40
2019-01-08T15:54:51.910Z,8.40
2019-01-08T15:57:21.063Z,8.50
2019-01-08T15:59:50.283Z,8.40
2019-01-08T16:02:19.518Z,8.30
2019-01-08T16:04:48.683Z,8.30
2019-01-08T16:07:17.826Z,8.20
2019-01-08T16:09:48.829Z,8.20
2019-01-08T16:12:17.841Z,8.20
2019-01-08T16:14:47.003Z,8.10
2019-01-08T16:17:17.122Z,8.10
2019-01-08T16:19:46.435Z,8.10
2019-01-08T16:22:15.594Z,8.00
2019-01-08T16:24:44.835Z,7.90
2019-01-08T16:27:13.982Z,7.90
2019-01-08T16:29:43.152Z,7.80
2019-01-08T16:32:12.334Z,7.70
2019-01-08T16:34:41.480Z,7.70
2019-01-08T16:37:10.732Z,7.60
2019-01-08T16:39:40.660Z,7.60
2019-01-08T16:42:10.422Z,7.60
2019-01-08T16:44:39.614Z,7.60
2019-01-08T16:47:08.804Z,7.50
2019-01-08T16:49:38.034Z,7.50
2019-01-08T16:52:07.716Z,7.50
2019-01-08T16:54:36.985Z,7.50
2019-01-08T16:57:06.132Z,7.50
2019-01-08T16:59:35.297Z,7.40
2019-01-08T17:02:04.951Z,7.50
2019-01-08T17:04:34.317Z,7.40
2019-01-08T17:07:03.599Z,7.50
2019-01-08T17:09:32.839Z,7.50
2019-01-08T17:12:01.989Z,7.60
2019-01-08T17:14:31.343Z,7.60
2019-01-08T17:17:00.590Z,7.60
2019-01-08T17:19:29.762Z,7.60
2019-01-08T17:21:58.995Z,7.60
2019-01-08T17:24:28.185Z,7.50
2019-01-08T17:26:57.334Z,7.50
2019-01-08T17:29:26.691Z,7.40
2019-01-08T17:31:55.939Z,7.30
2019-01-08T17:34:25.427Z,7.30
2019-01-08T17:36:54.615Z,7.30
2019-01-08T17:39:25.007Z,7.30
2019-01-08T17:41:54.760Z,7.30
2019-01-08T17:44:24.004Z,7.30
2019-01-08T17:46:53.175Z,7.30
2019-01-08T17:49:22.324Z,7.30
2019-01-08T17:51:51.512Z,7.20
2019-01-08T17:54:20.848Z,7.20
2019-01-08T17:56:50.481Z,7.10
2019-01-08T17:59:19.768Z,7.10
2019-01-08T18:01:51.650Z,7.00
2019-01-08T18:04:20.829Z,6.90
2019-01-08T18:06:50.355Z,6.90
2019-01-08T18:09:19.591Z,6.80
2019-01-08T18:11:48.737Z,6.80
2019-01-08T18:14:18.103Z,6.70
2019-01-08T18:16:47.345Z,6.70
2019-01-08T18:19:16.575Z,6.70
2019-01-08T18:21:45.779Z,6.70
2019-01-08T18:24:14.996Z,6.70
2019-01-08T18:26:44.146Z,6.60
2019-01-08T18:29:13.390Z,6.70
2019-01-08T18:31:42.650Z,6.60
2019-01-08T18:34:11.879Z,6.60
2019-01-08T18:36:41.681Z,6.50
2019-01-08T18:39:12.015Z,6.50
2019-01-08T18:41:41.490Z,6.50
2019-01-08T18:44:10.662Z,6.50
2019-01-08T18:46:39.834Z,6.50
2019-01-08T18:49:08.996Z,6.50
2019-01-08T18:51:39.129Z,6.50
2019-01-08T18:54:08.498Z,6.50
2019-01-08T18:56:39.652Z,6.50
2019-01-08T18:59:08.899Z,6.40
2019-01-08T19:01:38.452Z,6.40
2019-01-08T19:04:08.003Z,6.30
2019-01-08T19:06:37.733Z,6.30
2019-01-08T19:09:25.287Z,6.30
2019-01-08T19:11:55.131Z,6.30
2019-01-08T19:14:27.928Z,6.20
2019-01-08T19:16:57.558Z,6.20
2019-01-08T19:19:27.101Z,6.10
2019-01-08T19:21:56.894Z,6.10
2019-01-08T19:24:27.186Z,6.10
2019-01-08T19:27:01.271Z,6.10
2019-01-08T19:29:30.426Z,6.00
2019-01-08T19:32:00.060Z,6.00
2019-01-08T19:34:29.658Z,5.90
2019-01-08T19:36:58.963Z,5.90
2019-01-08T19:39:28.201Z,5.80
2019-01-08T19:41:57.530Z,5.80
2019-01-08T19:44:26.771Z,5.80
2019-01-08T19:46:56.212Z,5.80
2019-01-08T19:49:25.487Z,5.90
2019-01-08T19:51:55.009Z,5.90
2019-01-08T19:54:25.301Z,5.80
2019-01-08T19:56:54.829Z,5.80
2019-01-08T19:59:24.072Z,5.80
2019-01-08T20:01:53.239Z,5.80
2019-01-08T20:04:22.415Z,5.80
2019-01-08T20:06:51.645Z,5.70
2019-01-08T20:09:25.504Z,5.70
2019-01-08T20:11:51.692Z,5.70
2019-01-08T20:14:21.909Z,5.60
2019-01-08T20:16:51.245Z,5.70
2019-01-08T20:19:20.488Z,5.60
2019-01-08T20:21:49.631Z,5.60
2019-01-08T20:24:18.810Z,5.60
2019-01-08T20:26:48.079Z,5.50
2019-01-08T20:29:17.226Z,5.50
2019-01-08T20:31:47.221Z,5.60
2019-01-08T20:34:16.387Z,5.50
2019-01-08T20:36:45.774Z,5.50
2019-01-08T20:39:15.800Z,5.50
2019-01-08T20:41:45.053Z,5.50
2019-01-08T20:44:14.202Z,5.50
2019-01-08T20:46:43.415Z,5.40
2019-01-08T20:49:12.652Z,5.40
2019-01-08T20:51:41.835Z,5.40
2019-01-08T20:54:11.362Z,5.40
2019-01-08T20:56:40.614Z,5.30
2019-01-08T20:59:10.202Z,5.30
2019-01-08T21:01:39.371Z,5.40
2019-01-08T21:04:08.552Z,5.40
2019-01-08T21:06:37.767Z,5.40
2019-01-08T21:09:06.935Z,5.30
2019-01-08T21:11:36.175Z,5.40
2019-01-08T21:14:06.619Z,5.30
2019-01-08T21:16:36.235Z,5.30
2019-01-08T21:19:05.427Z,5.30
2019-01-08T21:21:34.707Z,5.30
2019-01-08T21:24:03.955Z,5.30
2019-01-08T21:26:33.208Z,5.40
2019-01-08T21:29:02.356Z,5.50
2019-01-08T21:31:31.539Z,5.40
2019-01-08T21:34:00.798Z,5.50
2019-01-08T21:36:30.252Z,5.50
2019-01-08T21:38:59.877Z,5.50
2019-01-08T21:41:29.418Z,5.50
2019-01-08T21:43:59.828Z,5.50
2019-01-08T21:46:29.236Z,5.40
2019-01-08T21:48:58.477Z,5.40
2019-01-08T21:51:29.354Z,5.40
2019-01-08T21:53:58.802Z,5.40
2019-01-08T21:56:27.972Z,5.30
2019-01-08T21:58:57.126Z,5.30
2019-01-08T22:01:26.286Z,5.40
2019-01-08T22:03:55.461Z,5.40
2019-01-08T22:06:24.608Z,5.40
2019-01-08T22:08:54.049Z,5.30
2019-01-08T22:11:23.226Z,5.40
2019-01-08T22:13:53.038Z,5.40
2019-01-08T22:16:23.183Z,5.40
2019-01-08T22:18:52.428Z,5.30
2019-01-08T22:21:21.574Z,5.30
2019-01-08T22:23:50.738Z,5.30
2019-01-08T22:26:20.874Z,5.30
2019-01-08T22:28:50.022Z,5.30
2019-01-08T22:31:19.190Z,5.30
2019-01-08T22:33:48.379Z,5.30
2019-01-08T22:36:17.592Z,5.30
2019-01-08T22:38:46.879Z,5.30
2019-01-08T22:41:16.055Z,5.30
2019-01-08T22:43:45.201Z,5.20
2019-01-08T22:46:15.028Z,5.30
2019-01-08T22:48:44.211Z,5.30
2019-01-08T22:51:14.042Z,5.40
2019-01-08T22:53:43.442Z,5.30
2019-01-08T22:56:12.618Z,5.40
2019-01-08T22:58:42.334Z,5.40
2019-01-08T23:01:13.213Z,5.30
2019-01-08T23:03:42.387Z,5.40
2019-01-08T23:06:12.091Z,5.40
2019-01-08T23:08:41.289Z,5.30
2019-01-08T23:11:12.193Z,5.30
2019-01-08T23:13:41.416Z,5.30
2019-01-08T23:16:12.988Z,5.30
2019-01-08T23:18:42.159Z,5.30
2019-01-08T23:21:11.862Z,5.30
2019-01-08T23:23:41.041Z,5.20
2019-01-08T23:26:10.179Z,5.20
2019-01-08T23:28:39.412Z,5.20
2019-01-08T23:31:08.983Z,5.20
2019-01-08T23:33:38.212Z,5.30
2019-01-08T23:36:07.379Z,5.20
2019-01-08T23:38:36.549Z,5.30
2019-01-08T23:41:05.704Z,5.30
2019-01-08T23:43:35.004Z,5.20
2019-01-08T23:46:04.175Z,5.30
2019-01-08T23:48:33.358Z,5.20
2019-01-08T23:51:02.592Z,5.30
2019-01-08T23:53:32.227Z,5.30
2019-01-08T23:56:02.033Z,5.30
2019-01-08T23:58:31.252Z,5.30
